sensor_id;sensor_type;location;lat;lon;timestamp;P1;durP1;ratioP1;P2;durP2;ratioP2
16159;SDS011;8185;57.818;15.224;2023-02-26T00:00:57;1.83;;;0.80;;
16159;SDS011;8185;57.818;15.224;2023-02-26T00:03:24;2.03;;;0.70;;
16159;SDS011;8185;57.818;15.224;2023-02-26T00:05:57;0.90;;;0.70;;
16159;SDS011;8185;57.818;15.224;2023-02-26T00:08:25;4.47;;;0.90;;
16159;SDS011;8185;57.818;15.224;2023-02-26T00:10:52;1.30;;;0.70;;
16159;SDS011;8185;57.818;15.224;2023-02-26T00:13:20;2.90;;;0.83;;
16159;SDS011;8185;57.818;15.224;2023-02-26T00:15:48;1.97;;;0.73;;
16159;SDS011;8185;57.818;15.224;2023-02-26T00:18:17;2.33;;;0.90;;
16159;SDS011;8185;57.818;15.224;2023-02-26T00:20:45;3.77;;;0.93;;
16159;SDS011;8185;57.818;15.224;2023-02-26T00:23:14;1.20;;;0.80;;
16159;SDS011;8185;57.818;15.224;2023-02-26T00:25:42;1.10;;;0.70;;
16159;SDS011;8185;57.818;15.224;2023-02-26T00:28:10;2.97;;;0.90;;
16159;SDS011;8185;57.818;15.224;2023-02-26T00:30:38;0.87;;;0.60;;
16159;SDS011;8185;57.818;15.224;2023-02-26T00:33:06;1.93;;;0.80;;
16159;SDS011;8185;57.818;15.224;2023-02-26T00:35:34;2.90;;;0.70;;
16159;SDS011;8185;57.818;15.224;2023-02-26T00:38:02;1.00;;;0.50;;
16159;SDS011;8185;57.818;15.224;2023-02-26T00:40:36;3.07;;;0.90;;
16159;SDS011;8185;57.818;15.224;2023-02-26T00:43:09;2.30;;;0.50;;
16159;SDS011;8185;57.818;15.224;2023-02-26T00:45:41;1.63;;;0.80;;
16159;SDS011;8185;57.818;15.224;2023-02-26T00:48:15;1.30;;;0.67;;
16159;SDS011;8185;57.818;15.224;2023-02-26T00:50:57;1.50;;;0.70;;
16159;SDS011;8185;57.818;15.224;2023-02-26T00:53:30;1.97;;;0.80;;
16159;SDS011;8185;57.818;15.224;2023-02-26T00:56:06;2.77;;;1.07;;
16159;SDS011;8185;57.818;15.224;2023-02-26T00:58:33;1.87;;;0.87;;
16159;SDS011;8185;57.818;15.224;2023-02-26T01:01:01;1.37;;;0.60;;
16159;SDS011;8185;57.818;15.224;2023-02-26T01:03:29;1.87;;;0.80;;
16159;SDS011;8185;57.818;15.224;2023-02-26T01:05:57;1.23;;;0.70;;
16159;SDS011;8185;57.818;15.224;2023-02-26T01:08:26;1.70;;;0.90;;
16159;SDS011;8185;57.818;15.224;2023-02-26T01:11:00;1.83;;;0.97;;
16159;SDS011;8185;57.818;15.224;2023-02-26T01:13:29;1.53;;;0.80;;
16159;SDS011;8185;57.818;15.224;2023-02-26T01:15:57;1.10;;;0.77;;
16159;SDS011;8185;57.818;15.224;2023-02-26T01:18:30;1.73;;;0.67;;
16159;SDS011;8185;57.818;15.224;2023-02-26T01:21:03;2.03;;;0.90;;
16159;SDS011;8185;57.818;15.224;2023-02-26T01:23:34;1.10;;;0.70;;
16159;SDS011;8185;57.818;15.224;2023-02-26T01:26:09;2.97;;;0.67;;
16159;SDS011;8185;57.818;15.224;2023-02-26T01:28:42;2.70;;;0.83;;
16159;SDS011;8185;57.818;15.224;2023-02-26T01:31:13;1.37;;;0.63;;
16159;SDS011;8185;57.818;15.224;2023-02-26T01:33:50;1.17;;;0.90;;
16159;SDS011;8185;57.818;15.224;2023-02-26T01:36:22;1.03;;;0.80;;
16159;SDS011;8185;57.818;15.224;2023-02-26T01:38:55;2.13;;;0.50;;
16159;SDS011;8185;57.818;15.224;2023-02-26T01:41:29;1.97;;;0.77;;
16159;SDS011;8185;57.818;15.224;2023-02-26T01:44:02;2.60;;;1.00;;
16159;SDS011;8185;57.818;15.224;2023-02-26T01:46:36;4.27;;;1.00;;
16159;SDS011;8185;57.818;15.224;2023-02-26T01:49:11;4.33;;;0.83;;
16159;SDS011;8185;57.818;15.224;2023-02-26T01:51:42;1.40;;;0.73;;
16159;SDS011;8185;57.818;15.224;2023-02-26T01:54:13;1.90;;;0.77;;
16159;SDS011;8185;57.818;15.224;2023-02-26T01:56:41;3.10;;;1.03;;
16159;SDS011;8185;57.818;15.224;2023-02-26T01:59:13;1.77;;;0.60;;
16159;SDS011;8185;57.818;15.224;2023-02-26T02:01:42;1.40;;;0.80;;
16159;SDS011;8185;57.818;15.224;2023-02-26T02:04:10;2.13;;;0.70;;
16159;SDS011;8185;57.818;15.224;2023-02-26T02:06:40;1.10;;;0.70;;
16159;SDS011;8185;57.818;15.224;2023-02-26T02:09:09;1.87;;;0.87;;
16159;SDS011;8185;57.818;15.224;2023-02-26T02:11:39;1.30;;;0.70;;
16159;SDS011;8185;57.818;15.224;2023-02-26T02:14:29;3.90;;;0.90;;
16159;SDS011;8185;57.818;15.224;2023-02-26T02:17:06;1.23;;;0.60;;
16159;SDS011;8185;57.818;15.224;2023-02-26T02:19:53;1.47;;;0.80;;
16159;SDS011;8185;57.818;15.224;2023-02-26T02:22:39;3.23;;;1.00;;
16159;SDS011;8185;57.818;15.224;2023-02-26T02:25:35;1.50;;;0.90;;
16159;SDS011;8185;57.818;15.224;2023-02-26T02:28:32;0.80;;;0.80;;
16159;SDS011;8185;57.818;15.224;2023-02-26T02:31:09;1.17;;;0.83;;
16159;SDS011;8185;57.818;15.224;2023-02-26T02:33:41;1.27;;;0.60;;
16159;SDS011;8185;57.818;15.224;2023-02-26T02:36:13;1.53;;;0.97;;
16159;SDS011;8185;57.818;15.224;2023-02-26T02:38:47;2.17;;;0.93;;
16159;SDS011;8185;57.818;15.224;2023-02-26T02:41:18;2.30;;;0.90;;
16159;SDS011;8185;57.818;15.224;2023-02-26T02:43:50;2.83;;;0.90;;
16159;SDS011;8185;57.818;15.224;2023-02-26T02:46:19;2.33;;;0.80;;
16159;SDS011;8185;57.818;15.224;2023-02-26T02:48:52;2.80;;;0.93;;
16159;SDS011;8185;57.818;15.224;2023-02-26T02:51:24;1.63;;;0.87;;
16159;SDS011;8185;57.818;15.224;2023-02-26T02:53:56;2.17;;;0.80;;
16159;SDS011;8185;57.818;15.224;2023-02-26T02:56:28;2.37;;;1.00;;
16159;SDS011;8185;57.818;15.224;2023-02-26T02:59:02;1.87;;;0.90;;
16159;SDS011;8185;57.818;15.224;2023-02-26T03:01:38;2.83;;;0.77;;
16159;SDS011;8185;57.818;15.224;2023-02-26T03:04:07;2.00;;;0.90;;
16159;SDS011;8185;57.818;15.224;2023-02-26T03:06:36;3.67;;;1.13;;
16159;SDS011;8185;57.818;15.224;2023-02-26T03:09:06;2.93;;;1.20;;
16159;SDS011;8185;57.818;15.224;2023-02-26T03:11:35;1.67;;;0.90;;
16159;SDS011;8185;57.818;15.224;2023-02-26T03:14:03;3.37;;;1.10;;
16159;SDS011;8185;57.818;15.224;2023-02-26T03:16:48;1.67;;;0.80;;
16159;SDS011;8185;57.818;15.224;2023-02-26T03:19:29;3.93;;;1.07;;
16159;SDS011;8185;57.818;15.224;2023-02-26T03:22:04;3.10;;;1.07;;
16159;SDS011;8185;57.818;15.224;2023-02-26T03:24:39;1.53;;;0.97;;
16159;SDS011;8185;57.818;15.224;2023-02-26T03:27:16;2.13;;;0.90;;
16159;SDS011;8185;57.818;15.224;2023-02-26T03:29:49;2.47;;;0.90;;
16159;SDS011;8185;57.818;15.224;2023-02-26T03:32:20;1.93;;;1.03;;
16159;SDS011;8185;57.818;15.224;2023-02-26T03:34:52;1.63;;;0.70;;
16159;SDS011;8185;57.818;15.224;2023-02-26T03:37:25;4.00;;;1.40;;
16159;SDS011;8185;57.818;15.224;2023-02-26T03:39:58;1.60;;;0.90;;
16159;SDS011;8185;57.818;15.224;2023-02-26T03:42:32;3.13;;;0.80;;
16159;SDS011;8185;57.818;15.224;2023-02-26T03:45:04;2.00;;;1.20;;
16159;SDS011;8185;57.818;15.224;2023-02-26T03:47:36;1.87;;;1.00;;
16159;SDS011;8185;57.818;15.224;2023-02-26T03:50:07;2.80;;;0.90;;
16159;SDS011;8185;57.818;15.224;2023-02-26T03:52:38;2.43;;;1.00;;
16159;SDS011;8185;57.818;15.224;2023-02-26T03:55:09;2.33;;;1.10;;
16159;SDS011;8185;57.818;15.224;2023-02-26T03:57:40;1.23;;;0.93;;
16159;SDS011;8185;57.818;15.224;2023-02-26T04:00:08;2.03;;;0.90;;
16159;SDS011;8185;57.818;15.224;2023-02-26T04:02:39;4.47;;;1.07;;
16159;SDS011;8185;57.818;15.224;2023-02-26T04:05:11;2.90;;;1.10;;
16159;SDS011;8185;57.818;15.224;2023-02-26T04:07:43;2.67;;;0.97;;
16159;SDS011;8185;57.818;15.224;2023-02-26T04:10:13;2.40;;;0.93;;
16159;SDS011;8185;57.818;15.224;2023-02-26T04:12:44;1.47;;;0.80;;
16159;SDS011;8185;57.818;15.224;2023-02-26T04:15:11;1.63;;;0.90;;
16159;SDS011;8185;57.818;15.224;2023-02-26T04:17:40;2.00;;;0.97;;
16159;SDS011;8185;57.818;15.224;2023-02-26T04:20:07;3.53;;;1.20;;
16159;SDS011;8185;57.818;15.224;2023-02-26T04:22:36;2.70;;;0.77;;
16159;SDS011;8185;57.818;15.224;2023-02-26T04:25:04;3.53;;;1.30;;
16159;SDS011;8185;57.818;15.224;2023-02-26T04:27:31;2.80;;;1.10;;
16159;SDS011;8185;57.818;15.224;2023-02-26T04:29:58;3.37;;;0.87;;
16159;SDS011;8185;57.818;15.224;2023-02-26T04:32:25;2.77;;;1.13;;
16159;SDS011;8185;57.818;15.224;2023-02-26T04:34:54;2.07;;;1.00;;
16159;SDS011;8185;57.818;15.224;2023-02-26T04:37:21;3.10;;;1.37;;
16159;SDS011;8185;57.818;15.224;2023-02-26T04:39:48;2.93;;;1.00;;
16159;SDS011;8185;57.818;15.224;2023-02-26T04:42:15;2.77;;;1.10;;
16159;SDS011;8185;57.818;15.224;2023-02-26T04:44:42;2.30;;;0.80;;
16159;SDS011;8185;57.818;15.224;2023-02-26T04:47:10;2.57;;;0.97;;
16159;SDS011;8185;57.818;15.224;2023-02-26T04:49:37;4.37;;;1.17;;
16159;SDS011;8185;57.818;15.224;2023-02-26T04:52:05;2.83;;;0.80;;
16159;SDS011;8185;57.818;15.224;2023-02-26T04:54:33;2.20;;;1.00;;
16159;SDS011;8185;57.818;15.224;2023-02-26T04:57:00;2.57;;;1.03;;
16159;SDS011;8185;57.818;15.224;2023-02-26T04:59:27;1.67;;;0.90;;
16159;SDS011;8185;57.818;15.224;2023-02-26T05:01:54;5.60;;;1.40;;
16159;SDS011;8185;57.818;15.224;2023-02-26T05:04:21;3.93;;;1.07;;
16159;SDS011;8185;57.818;15.224;2023-02-26T05:06:48;2.97;;;1.13;;
16159;SDS011;8185;57.818;15.224;2023-02-26T05:09:17;1.37;;;0.93;;
16159;SDS011;8185;57.818;15.224;2023-02-26T05:11:44;3.27;;;1.10;;
16159;SDS011;8185;57.818;15.224;2023-02-26T05:14:12;2.00;;;0.90;;
16159;SDS011;8185;57.818;15.224;2023-02-26T05:16:39;2.57;;;1.00;;
16159;SDS011;8185;57.818;15.224;2023-02-26T05:19:06;4.40;;;1.17;;
16159;SDS011;8185;57.818;15.224;2023-02-26T05:21:33;1.93;;;1.00;;
16159;SDS011;8185;57.818;15.224;2023-02-26T05:24:01;3.33;;;0.90;;
16159;SDS011;8185;57.818;15.224;2023-02-26T05:26:30;4.37;;;1.03;;
16159;SDS011;8185;57.818;15.224;2023-02-26T05:28:57;1.67;;;0.90;;
16159;SDS011;8185;57.818;15.224;2023-02-26T05:31:24;2.60;;;1.00;;
16159;SDS011;8185;57.818;15.224;2023-02-26T05:33:52;2.30;;;0.90;;
16159;SDS011;8185;57.818;15.224;2023-02-26T05:36:19;2.27;;;0.90;;
16159;SDS011;8185;57.818;15.224;2023-02-26T05:38:47;2.40;;;1.03;;
16159;SDS011;8185;57.818;15.224;2023-02-26T05:41:14;3.20;;;0.90;;
16159;SDS011;8185;57.818;15.224;2023-02-26T05:43:42;2.57;;;0.90;;
16159;SDS011;8185;57.818;15.224;2023-02-26T05:46:10;2.87;;;0.93;;
16159;SDS011;8185;57.818;15.224;2023-02-26T05:48:38;2.17;;;0.90;;
16159;SDS011;8185;57.818;15.224;2023-02-26T05:51:05;2.30;;;1.00;;
16159;SDS011;8185;57.818;15.224;2023-02-26T05:53:32;2.73;;;1.10;;
16159;SDS011;8185;57.818;15.224;2023-02-26T05:55:59;2.37;;;1.00;;
16159;SDS011;8185;57.818;15.224;2023-02-26T05:58:27;2.47;;;1.30;;
16159;SDS011;8185;57.818;15.224;2023-02-26T06:00:58;1.77;;;0.80;;
16159;SDS011;8185;57.818;15.224;2023-02-26T06:03:26;2.87;;;1.03;;
16159;SDS011;8185;57.818;15.224;2023-02-26T06:05:53;2.80;;;1.27;;
16159;SDS011;8185;57.818;15.224;2023-02-26T06:08:20;2.13;;;1.03;;
16159;SDS011;8185;57.818;15.224;2023-02-26T06:10:48;2.77;;;1.00;;
16159;SDS011;8185;57.818;15.224;2023-02-26T06:13:16;3.23;;;1.27;;
16159;SDS011;8185;57.818;15.224;2023-02-26T06:15:44;3.00;;;1.27;;
16159;SDS011;8185;57.818;15.224;2023-02-26T06:18:14;4.53;;;1.23;;
16159;SDS011;8185;57.818;15.224;2023-02-26T06:20:41;3.17;;;1.20;;
16159;SDS011;8185;57.818;15.224;2023-02-26T06:23:08;3.27;;;1.50;;
16159;SDS011;8185;57.818;15.224;2023-02-26T06:25:36;2.40;;;1.07;;
16159;SDS011;8185;57.818;15.224;2023-02-26T06:28:03;3.17;;;1.27;;
16159;SDS011;8185;57.818;15.224;2023-02-26T06:30:30;2.67;;;1.20;;
16159;SDS011;8185;57.818;15.224;2023-02-26T06:32:57;3.17;;;1.30;;
16159;SDS011;8185;57.818;15.224;2023-02-26T06:35:26;3.80;;;1.37;;
16159;SDS011;8185;57.818;15.224;2023-02-26T06:37:54;1.73;;;1.10;;
16159;SDS011;8185;57.818;15.224;2023-02-26T06:40:21;1.60;;;1.27;;
16159;SDS011;8185;57.818;15.224;2023-02-26T06:42:48;3.93;;;1.63;;
16159;SDS011;8185;57.818;15.224;2023-02-26T06:45:16;1.60;;;1.00;;
16159;SDS011;8185;57.818;15.224;2023-02-26T06:47:43;2.53;;;1.57;;
16159;SDS011;8185;57.818;15.224;2023-02-26T06:50:10;4.33;;;0.90;;
16159;SDS011;8185;57.818;15.224;2023-02-26T06:52:39;5.07;;;0.90;;
16159;SDS011;8185;57.818;15.224;2023-02-26T06:55:07;3.00;;;1.33;;
16159;SDS011;8185;57.818;15.224;2023-02-26T06:57:35;1.60;;;1.00;;
16159;SDS011;8185;57.818;15.224;2023-02-26T07:00:03;4.33;;;1.10;;
16159;SDS011;8185;57.818;15.224;2023-02-26T07:02:31;1.33;;;0.90;;
16159;SDS011;8185;57.818;15.224;2023-02-26T07:04:58;1.63;;;0.90;;
16159;SDS011;8185;57.818;15.224;2023-02-26T07:07:26;1.40;;;0.90;;
16159;SDS011;8185;57.818;15.224;2023-02-26T07:09:55;2.33;;;0.87;;
16159;SDS011;8185;57.818;15.224;2023-02-26T07:12:22;3.00;;;1.00;;
16159;SDS011;8185;57.818;15.224;2023-02-26T07:14:49;2.90;;;0.90;;
16159;SDS011;8185;57.818;15.224;2023-02-26T07:17:16;2.20;;;0.60;;
16159;SDS011;8185;57.818;15.224;2023-02-26T07:19:46;1.70;;;1.00;;
16159;SDS011;8185;57.818;15.224;2023-02-26T07:22:13;2.10;;;0.80;;
16159;SDS011;8185;57.818;15.224;2023-02-26T07:24:41;1.73;;;0.80;;
16159;SDS011;8185;57.818;15.224;2023-02-26T07:27:10;1.83;;;0.83;;
16159;SDS011;8185;57.818;15.224;2023-02-26T07:29:37;1.43;;;0.77;;
16159;SDS011;8185;57.818;15.224;2023-02-26T07:32:04;1.30;;;0.70;;
16159;SDS011;8185;57.818;15.224;2023-02-26T07:34:32;1.63;;;1.17;;
16159;SDS011;8185;57.818;15.224;2023-02-26T07:36:59;2.07;;;0.90;;
16159;SDS011;8185;57.818;15.224;2023-02-26T07:39:26;1.47;;;0.80;;
16159;SDS011;8185;57.818;15.224;2023-02-26T07:41:53;1.83;;;0.80;;
16159;SDS011;8185;57.818;15.224;2023-02-26T07:44:22;0.80;;;0.80;;
16159;SDS011;8185;57.818;15.224;2023-02-26T07:46:49;1.70;;;0.50;;
16159;SDS011;8185;57.818;15.224;2023-02-26T07:49:16;2.10;;;0.60;;
16159;SDS011;8185;57.818;15.224;2023-02-26T07:51:44;1.67;;;0.90;;
16159;SDS011;8185;57.818;15.224;2023-02-26T07:54:12;2.70;;;1.00;;
16159;SDS011;8185;57.818;15.224;2023-02-26T07:56:40;1.83;;;0.80;;
16159;SDS011;8185;57.818;15.224;2023-02-26T07:59:09;2.37;;;0.93;;
16159;SDS011;8185;57.818;15.224;2023-02-26T08:01:37;2.57;;;1.17;;
16159;SDS011;8185;57.818;15.224;2023-02-26T08:04:04;1.60;;;0.77;;
16159;SDS011;8185;57.818;15.224;2023-02-26T08:06:32;3.13;;;0.83;;
16159;SDS011;8185;57.818;15.224;2023-02-26T08:08:59;3.23;;;0.80;;
16159;SDS011;8185;57.818;15.224;2023-02-26T08:11:27;0.53;;;0.50;;
16159;SDS011;8185;57.818;15.224;2023-02-26T08:13:54;1.73;;;0.90;;
16159;SDS011;8185;57.818;15.224;2023-02-26T08:16:21;1.20;;;0.57;;
16159;SDS011;8185;57.818;15.224;2023-02-26T08:18:50;1.40;;;0.60;;
16159;SDS011;8185;57.818;15.224;2023-02-26T08:21:17;1.70;;;0.70;;
16159;SDS011;8185;57.818;15.224;2023-02-26T08:23:44;1.33;;;0.70;;
16159;SDS011;8185;57.818;15.224;2023-02-26T08:26:13;1.53;;;0.80;;
16159;SDS011;8185;57.818;15.224;2023-02-26T08:28:40;1.97;;;0.53;;
16159;SDS011;8185;57.818;15.224;2023-02-26T08:31:07;2.00;;;0.70;;
16159;SDS011;8185;57.818;15.224;2023-02-26T08:33:35;1.20;;;0.60;;
16159;SDS011;8185;57.818;15.224;2023-02-26T08:36:04;1.93;;;0.70;;
16159;SDS011;8185;57.818;15.224;2023-02-26T08:38:32;1.33;;;0.50;;
16159;SDS011;8185;57.818;15.224;2023-02-26T08:40:59;1.53;;;0.63;;
16159;SDS011;8185;57.818;15.224;2023-02-26T08:43:26;0.70;;;0.53;;
16159;SDS011;8185;57.818;15.224;2023-02-26T08:45:54;1.40;;;0.60;;
16159;SDS011;8185;57.818;15.224;2023-02-26T08:48:22;2.20;;;0.57;;
16159;SDS011;8185;57.818;15.224;2023-02-26T08:50:50;0.87;;;0.50;;
16159;SDS011;8185;57.818;15.224;2023-02-26T08:53:18;0.77;;;0.50;;
16159;SDS011;8185;57.818;15.224;2023-02-26T08:55:46;1.30;;;0.50;;
16159;SDS011;8185;57.818;15.224;2023-02-26T08:58:14;0.77;;;0.57;;
16159;SDS011;8185;57.818;15.224;2023-02-26T09:00:42;0.80;;;0.50;;
16159;SDS011;8185;57.818;15.224;2023-02-26T09:03:09;0.57;;;0.53;;
16159;SDS011;8185;57.818;15.224;2023-02-26T09:05:37;0.93;;;0.60;;
16159;SDS011;8185;57.818;15.224;2023-02-26T09:08:05;2.03;;;0.70;;
16159;SDS011;8185;57.818;15.224;2023-02-26T09:10:34;1.27;;;0.60;;
16159;SDS011;8185;57.818;15.224;2023-02-26T09:13:01;1.03;;;0.63;;
16159;SDS011;8185;57.818;15.224;2023-02-26T09:15:28;1.20;;;0.60;;
16159;SDS011;8185;57.818;15.224;2023-02-26T09:17:56;1.23;;;0.63;;
16159;SDS011;8185;57.818;15.224;2023-02-26T09:20:23;0.60;;;0.40;;
16159;SDS011;8185;57.818;15.224;2023-02-26T09:22:50;1.73;;;0.63;;
16159;SDS011;8185;57.818;15.224;2023-02-26T09:25:18;1.10;;;0.60;;
16159;SDS011;8185;57.818;15.224;2023-02-26T09:27:46;1.33;;;0.50;;
16159;SDS011;8185;57.818;15.224;2023-02-26T09:30:14;2.10;;;0.67;;
16159;SDS011;8185;57.818;15.224;2023-02-26T09:32:41;1.33;;;0.70;;
16159;SDS011;8185;57.818;15.224;2023-02-26T09:35:08;0.40;;;0.40;;
16159;SDS011;8185;57.818;15.224;2023-02-26T09:37:36;2.40;;;0.60;;
16159;SDS011;8185;57.818;15.224;2023-02-26T09:40:04;1.20;;;0.43;;
16159;SDS011;8185;57.818;15.224;2023-02-26T09:42:40;1.53;;;0.57;;
16159;SDS011;8185;57.818;15.224;2023-02-26T09:45:20;0.87;;;0.47;;
16159;SDS011;8185;57.818;15.224;2023-02-26T09:47:52;0.67;;;0.40;;
16159;SDS011;8185;57.818;15.224;2023-02-26T09:50:21;1.33;;;0.67;;
16159;SDS011;8185;57.818;15.224;2023-02-26T09:52:52;0.70;;;0.50;;
16159;SDS011;8185;57.818;15.224;2023-02-26T09:55:26;1.47;;;0.60;;
16159;SDS011;8185;57.818;15.224;2023-02-26T09:57:57;0.37;;;0.33;;
16159;SDS011;8185;57.818;15.224;2023-02-26T10:00:28;0.43;;;0.37;;
16159;SDS011;8185;57.818;15.224;2023-02-26T10:03:04;0.90;;;0.40;;
16159;SDS011;8185;57.818;15.224;2023-02-26T10:05:44;0.30;;;0.27;;
16159;SDS011;8185;57.818;15.224;2023-02-26T10:08:27;2.67;;;0.40;;
16159;SDS011;8185;57.818;15.224;2023-02-26T10:11:02;0.53;;;0.43;;
16159;SDS011;8185;57.818;15.224;2023-02-26T10:13:39;0.47;;;0.30;;
16159;SDS011;8185;57.818;15.224;2023-02-26T10:16:10;0.67;;;0.30;;
16159;SDS011;8185;57.818;15.224;2023-02-26T10:18:41;0.87;;;0.40;;
16159;SDS011;8185;57.818;15.224;2023-02-26T10:21:13;1.70;;;0.43;;
16159;SDS011;8185;57.818;15.224;2023-02-26T10:23:48;0.23;;;0.20;;
16159;SDS011;8185;57.818;15.224;2023-02-26T10:26:18;0.53;;;0.30;;
16159;SDS011;8185;57.818;15.224;2023-02-26T10:28:52;1.30;;;0.30;;
16159;SDS011;8185;57.818;15.224;2023-02-26T10:31:26;0.73;;;0.30;;
16159;SDS011;8185;57.818;15.224;2023-02-26T10:34:04;1.17;;;0.40;;
16159;SDS011;8185;57.818;15.224;2023-02-26T10:36:39;0.60;;;0.30;;
16159;SDS011;8185;57.818;15.224;2023-02-26T10:39:15;1.73;;;0.40;;
16159;SDS011;8185;57.818;15.224;2023-02-26T10:41:48;0.30;;;0.27;;
16159;SDS011;8185;57.818;15.224;2023-02-26T10:44:21;0.83;;;0.40;;
16159;SDS011;8185;57.818;15.224;2023-02-26T10:46:55;0.60;;;0.43;;
16159;SDS011;8185;57.818;15.224;2023-02-26T10:49:34;1.33;;;0.60;;
16159;SDS011;8185;57.818;15.224;2023-02-26T10:52:17;1.57;;;0.70;;
16159;SDS011;8185;57.818;15.224;2023-02-26T10:54:48;0.77;;;0.30;;
16159;SDS011;8185;57.818;15.224;2023-02-26T10:57:30;0.67;;;0.40;;
16159;SDS011;8185;57.818;15.224;2023-02-26T11:00:02;0.80;;;0.33;;
16159;SDS011;8185;57.818;15.224;2023-02-26T11:02:32;0.53;;;0.20;;
16159;SDS011;8185;57.818;15.224;2023-02-26T11:05:03;0.97;;;0.30;;
16159;SDS011;8185;57.818;15.224;2023-02-26T11:07:32;0.83;;;0.40;;
16159;SDS011;8185;57.818;15.224;2023-02-26T11:10:03;1.33;;;0.40;;
16159;SDS011;8185;57.818;15.224;2023-02-26T11:12:38;0.30;;;0.30;;
16159;SDS011;8185;57.818;15.224;2023-02-26T11:15:11;1.00;;;0.43;;
16159;SDS011;8185;57.818;15.224;2023-02-26T11:17:39;0.40;;;0.40;;
16159;SDS011;8185;57.818;15.224;2023-02-26T11:20:13;0.83;;;0.20;;
16159;SDS011;8185;57.818;15.224;2023-02-26T11:22:43;1.80;;;0.40;;
16159;SDS011;8185;57.818;15.224;2023-02-26T11:25:13;1.20;;;0.40;;
16159;SDS011;8185;57.818;15.224;2023-02-26T11:27:45;1.00;;;0.30;;
16159;SDS011;8185;57.818;15.224;2023-02-26T11:30:16;0.40;;;0.30;;
16159;SDS011;8185;57.818;15.224;2023-02-26T11:32:45;0.93;;;0.40;;
16159;SDS011;8185;57.818;15.224;2023-02-26T11:35:16;0.83;;;0.50;;
16159;SDS011;8185;57.818;15.224;2023-02-26T11:37:46;2.03;;;0.60;;
16159;SDS011;8185;57.818;15.224;2023-02-26T11:40:16;0.87;;;0.30;;
16159;SDS011;8185;57.818;15.224;2023-02-26T11:42:48;0.83;;;0.30;;
16159;SDS011;8185;57.818;15.224;2023-02-26T11:45:20;0.67;;;0.50;;
16159;SDS011;8185;57.818;15.224;2023-02-26T11:47:48;0.80;;;0.47;;
16159;SDS011;8185;57.818;15.224;2023-02-26T11:50:23;0.50;;;0.30;;
16159;SDS011;8185;57.818;15.224;2023-02-26T11:52:54;0.43;;;0.30;;
16159;SDS011;8185;57.818;15.224;2023-02-26T11:55:26;1.30;;;0.50;;
16159;SDS011;8185;57.818;15.224;2023-02-26T11:57:55;0.40;;;0.37;;
16159;SDS011;8185;57.818;15.224;2023-02-26T12:00:24;0.43;;;0.30;;
16159;SDS011;8185;57.818;15.224;2023-02-26T12:02:59;0.97;;;0.70;;
16159;SDS011;8185;57.818;15.224;2023-02-26T12:05:28;1.33;;;0.50;;
16159;SDS011;8185;57.818;15.224;2023-02-26T12:07:56;1.03;;;0.50;;
16159;SDS011;8185;57.818;15.224;2023-02-26T12:10:26;0.90;;;0.60;;
16159;SDS011;8185;57.818;15.224;2023-02-26T12:13:06;0.73;;;0.40;;
16159;SDS011;8185;57.818;15.224;2023-02-26T12:15:45;3.70;;;0.40;;
16159;SDS011;8185;57.818;15.224;2023-02-26T12:18:31;0.63;;;0.37;;
16159;SDS011;8185;57.818;15.224;2023-02-26T12:21:12;1.00;;;0.40;;
16159;SDS011;8185;57.818;15.224;2023-02-26T12:23:55;2.70;;;0.67;;
16159;SDS011;8185;57.818;15.224;2023-02-26T12:26:32;0.77;;;0.40;;
16159;SDS011;8185;57.818;15.224;2023-02-26T12:35:34;0.90;;;0.50;;
16159;SDS011;8185;57.818;15.224;2023-02-26T12:38:07;1.33;;;0.50;;
16159;SDS011;8185;57.818;15.224;2023-02-26T12:43:56;0.80;;;0.40;;
16159;SDS011;8185;57.818;15.224;2023-02-26T12:46:31;2.70;;;0.50;;
16159;SDS011;8185;57.818;15.224;2023-02-26T12:52:20;6.53;;;0.40;;
16159;SDS011;8185;57.818;15.224;2023-02-26T12:55:13;0.20;;;0.20;;
16159;SDS011;8185;57.818;15.224;2023-02-26T12:57:51;0.70;;;0.33;;
16159;SDS011;8185;57.818;15.224;2023-02-26T13:03:25;2.77;;;0.57;;
16159;SDS011;8185;57.818;15.224;2023-02-26T13:09:25;1.87;;;0.50;;
16159;SDS011;8185;57.818;15.224;2023-02-26T13:12:16;0.60;;;0.33;;
16159;SDS011;8185;57.818;15.224;2023-02-26T13:14:53;0.93;;;0.40;;
16159;SDS011;8185;57.818;15.224;2023-02-26T13:17:30;1.23;;;0.40;;
16159;SDS011;8185;57.818;15.224;2023-02-26T13:20:09;0.43;;;0.40;;
16159;SDS011;8185;57.818;15.224;2023-02-26T13:22:41;1.53;;;0.40;;
16159;SDS011;8185;57.818;15.224;2023-02-26T13:25:15;0.77;;;0.33;;
16159;SDS011;8185;57.818;15.224;2023-02-26T13:27:47;0.57;;;0.40;;
16159;SDS011;8185;57.818;15.224;2023-02-26T13:30:21;1.73;;;0.47;;
16159;SDS011;8185;57.818;15.224;2023-02-26T13:32:55;0.43;;;0.30;;
16159;SDS011;8185;57.818;15.224;2023-02-26T13:35:25;2.73;;;0.83;;
16159;SDS011;8185;57.818;15.224;2023-02-26T13:37:57;1.87;;;0.50;;
16159;SDS011;8185;57.818;15.224;2023-02-26T13:40:37;1.13;;;0.57;;
16159;SDS011;8185;57.818;15.224;2023-02-26T13:46:33;0.87;;;0.40;;
16159;SDS011;8185;57.818;15.224;2023-02-26T13:49:09;0.67;;;0.50;;
16159;SDS011;8185;57.818;15.224;2023-02-26T13:51:43;0.80;;;0.53;;
16159;SDS011;8185;57.818;15.224;2023-02-26T13:57:09;0.87;;;0.53;;
16159;SDS011;8185;57.818;15.224;2023-02-26T14:00:00;1.57;;;0.50;;
16159;SDS011;8185;57.818;15.224;2023-02-26T14:02:44;0.63;;;0.40;;
16159;SDS011;8185;57.818;15.224;2023-02-26T14:08:24;1.13;;;0.30;;
16159;SDS011;8185;57.818;15.224;2023-02-26T14:11:25;1.17;;;0.50;;
16159;SDS011;8185;57.818;15.224;2023-02-26T14:14:15;3.13;;;0.40;;
16159;SDS011;8185;57.818;15.224;2023-02-26T14:16:49;1.03;;;0.40;;
16159;SDS011;8185;57.818;15.224;2023-02-26T14:19:27;0.87;;;0.40;;
16159;SDS011;8185;57.818;15.224;2023-02-26T14:22:01;0.93;;;0.40;;
16159;SDS011;8185;57.818;15.224;2023-02-26T14:24:43;1.07;;;0.40;;
16159;SDS011;8185;57.818;15.224;2023-02-26T14:27:22;0.63;;;0.40;;
16159;SDS011;8185;57.818;15.224;2023-02-26T14:30:04;2.20;;;0.50;;
16159;SDS011;8185;57.818;15.224;2023-02-26T14:32:46;1.20;;;0.40;;
16159;SDS011;8185;57.818;15.224;2023-02-26T14:35:18;0.80;;;0.30;;
16159;SDS011;8185;57.818;15.224;2023-02-26T14:37:49;0.70;;;0.60;;
16159;SDS011;8185;57.818;15.224;2023-02-26T14:40:23;1.73;;;0.40;;
16159;SDS011;8185;57.818;15.224;2023-02-26T14:42:52;1.23;;;0.50;;
16159;SDS011;8185;57.818;15.224;2023-02-26T14:45:29;1.13;;;0.50;;
16159;SDS011;8185;57.818;15.224;2023-02-26T14:48:00;1.63;;;0.50;;
16159;SDS011;8185;57.818;15.224;2023-02-26T14:50:33;0.87;;;0.37;;
16159;SDS011;8185;57.818;15.224;2023-02-26T14:56:02;0.63;;;0.40;;
16159;SDS011;8185;57.818;15.224;2023-02-26T14:58:41;1.73;;;0.50;;
16159;SDS011;8185;57.818;15.224;2023-02-26T15:01:22;2.50;;;0.60;;
16159;SDS011;8185;57.818;15.224;2023-02-26T15:07:11;1.03;;;0.50;;
16159;SDS011;8185;57.818;15.224;2023-02-26T15:09:53;2.40;;;0.47;;
16159;SDS011;8185;57.818;15.224;2023-02-26T15:12:41;0.80;;;0.37;;
16159;SDS011;8185;57.818;15.224;2023-02-26T15:15:25;1.30;;;0.47;;
16159;SDS011;8185;57.818;15.224;2023-02-26T15:18:12;0.97;;;0.50;;
16159;SDS011;8185;57.818;15.224;2023-02-26T15:20:54;1.47;;;0.50;;
16159;SDS011;8185;57.818;15.224;2023-02-26T15:23:33;0.50;;;0.33;;
16159;SDS011;8185;57.818;15.224;2023-02-26T15:26:07;0.93;;;0.53;;
16159;SDS011;8185;57.818;15.224;2023-02-26T15:28:43;1.67;;;0.53;;
16159;SDS011;8185;57.818;15.224;2023-02-26T15:31:11;2.30;;;0.50;;
16159;SDS011;8185;57.818;15.224;2023-02-26T15:33:40;1.63;;;0.60;;
16159;SDS011;8185;57.818;15.224;2023-02-26T15:36:10;1.23;;;0.57;;
16159;SDS011;8185;57.818;15.224;2023-02-26T15:38:48;0.70;;;0.40;;
16159;SDS011;8185;57.818;15.224;2023-02-26T15:41:28;2.30;;;0.70;;
16159;SDS011;8185;57.818;15.224;2023-02-26T15:43:58;1.23;;;0.50;;
16159;SDS011;8185;57.818;15.224;2023-02-26T15:46:28;1.23;;;0.50;;
16159;SDS011;8185;57.818;15.224;2023-02-26T15:49:01;1.27;;;0.63;;